createdAt,value
2023-02-23T00:01:27.204Z,13.90
2023-02-23T00:04:33.351Z,23.95
2023-02-23T00:11:22.980Z,15.95
2023-02-23T00:14:29.770Z,16.73
2023-02-23T00:17:34.551Z,12.20
2023-02-23T00:20:44.993Z,13.53
2023-02-23T00:23:52.004Z,14.82
2023-02-23T00:26:56.745Z,15.15
2023-02-23T00:30:01.113Z,16.88
2023-02-23T00:33:08.549Z,18.77
2023-02-23T00:36:15.715Z,18.17
2023-02-23T00:39:29.966Z,20.98
2023-02-23T00:42:34.319Z,30.35
2023-02-23T00:45:38.425Z,20.58
2023-02-23T00:48:42.755Z,21.70
2023-02-23T00:51:47.802Z,23.50
2023-02-23T00:54:54.316Z,28.80
2023-02-23T00:58:00.499Z,27.02
2023-02-23T01:01:11.215Z,23.75
2023-02-23T01:04:15.837Z,30.83
2023-02-23T01:07:19.640Z,32.15
2023-02-23T01:14:58.662Z,55.95
2023-02-23T01:24:04.821Z,79.68
2023-02-23T01:27:19.294Z,37.47
2023-02-23T01:30:23.945Z,32.08
2023-02-23T01:33:28.305Z,23.80
2023-02-23T01:36:36.599Z,20.85
2023-02-23T01:39:40.842Z,17.17
2023-02-23T01:42:47.969Z,21.83
2023-02-23T01:45:53.006Z,19.17
2023-02-23T01:48:58.523Z,17.88
2023-02-23T01:52:08.100Z,18.33
2023-02-23T01:55:17.190Z,19.15
2023-02-23T01:58:21.977Z,16.98
2023-02-23T02:01:26.499Z,21.10
2023-02-23T02:04:34.408Z,20.50
2023-02-23T02:07:40.833Z,19.17
2023-02-23T02:10:47.551Z,20.10
2023-02-23T02:13:54.935Z,21.73
2023-02-23T02:17:08.739Z,20.08
2023-02-23T02:20:33.854Z,16.85
2023-02-23T02:23:41.183Z,16.75
2023-02-23T02:27:08.276Z,18.35
2023-02-23T02:30:28.486Z,17.33
2023-02-23T02:33:44.836Z,15.00
2023-02-23T02:37:33.899Z,13.27
2023-02-23T02:40:54.088Z,56.65
2023-02-23T02:44:12.470Z,15.38
2023-02-23T02:47:58.879Z,13.05
2023-02-23T02:51:22.402Z,12.60
2023-02-23T02:54:37.341Z,13.10
2023-02-23T02:57:44.855Z,12.02
2023-02-23T03:01:10.334Z,10.80
2023-02-23T03:04:43.466Z,11.10
2023-02-23T03:08:34.258Z,11.10
2023-02-23T03:12:03.714Z,11.18
2023-02-23T03:15:35.049Z,10.25
2023-02-23T03:19:33.378Z,11.05
2023-02-23T03:23:12.040Z,19.35
2023-02-23T03:26:50.523Z,10.85
2023-02-23T03:30:22.439Z,13.18
2023-02-23T03:34:06.297Z,18.23
2023-02-23T03:37:41.952Z,14.25
2023-02-23T03:41:07.376Z,13.57
2023-02-23T03:44:37.685Z,12.02
2023-02-23T03:48:03.586Z,22.88
2023-02-23T03:51:31.168Z,21.13
2023-02-23T03:55:00.381Z,17.08
2023-02-23T03:58:28.716Z,11.60
2023-02-23T04:01:53.320Z,10.40
2023-02-23T04:05:21.233Z,10.18
2023-02-23T04:08:50.484Z,10.77
2023-02-23T04:12:21.108Z,10.25
2023-02-23T04:15:32.939Z,13.70
2023-02-23T04:18:39.701Z,14.35
2023-02-23T04:21:44.107Z,11.52
2023-02-23T04:24:48.636Z,16.42
2023-02-23T04:31:42.603Z,10.68
2023-02-23T04:34:47.436Z,11.98
2023-02-23T04:37:54.726Z,9.45
2023-02-23T04:40:58.620Z,9.73
2023-02-23T04:44:06.349Z,13.60
2023-02-23T04:47:10.733Z,10.65
2023-02-23T04:50:18.285Z,10.10
2023-02-23T04:53:22.855Z,11.98
2023-02-23T04:56:27.050Z,34.80
2023-02-23T04:59:35.201Z,9.50
2023-02-23T05:02:39.157Z,11.93
2023-02-23T05:05:43.028Z,10.43
2023-02-23T05:08:51.507Z,10.52
2023-02-23T05:11:56.417Z,9.25
2023-02-23T05:15:00.554Z,10.37
2023-02-23T05:18:04.643Z,8.93
2023-02-23T05:21:15.233Z,11.52
2023-02-23T05:24:20.283Z,11.43
2023-02-23T05:27:24.816Z,18.00
2023-02-23T05:30:28.794Z,9.55
2023-02-23T05:33:35.881Z,11.50
2023-02-23T05:36:40.609Z,16.35
2023-02-23T05:39:45.202Z,45.55
2023-02-23T05:42:49.484Z,11.95
2023-02-23T05:45:53.819Z,9.07
2023-02-23T05:49:02.610Z,17.83
2023-02-23T05:52:07.315Z,33.58
2023-02-23T05:55:12.955Z,12.88
2023-02-23T05:58:17.760Z,32.08
2023-02-23T06:01:23.185Z,35.87
2023-02-23T06:04:27.714Z,8.18
2023-02-23T06:07:32.764Z,7.97
2023-02-23T06:10:37.108Z,36.15
2023-02-23T06:13:41.040Z,13.80
2023-02-23T06:16:46.111Z,8.07
2023-02-23T06:19:50.755Z,6.20
2023-02-23T06:22:55.452Z,7.60
2023-02-23T06:26:00.849Z,11.20
2023-02-23T06:29:05.555Z,6.75
2023-02-23T06:32:09.585Z,9.48
2023-02-23T06:35:47.099Z,13.60
2023-02-23T06:38:53.786Z,7.38
2023-02-23T06:41:58.586Z,23.27
2023-02-23T06:45:12.430Z,7.28
2023-02-23T06:48:19.879Z,31.73
2023-02-23T06:51:32.027Z,8.17
2023-02-23T06:54:36.170Z,7.00
2023-02-23T06:57:56.760Z,5.75
2023-02-23T07:01:07.233Z,7.47
2023-02-23T07:04:16.847Z,7.20
2023-02-23T07:07:31.690Z,9.88
2023-02-23T07:10:44.696Z,6.20
2023-02-23T07:13:51.901Z,7.05
2023-02-23T07:16:56.649Z,8.83
2023-02-23T07:20:00.623Z,7.63
2023-02-23T07:23:05.107Z,7.38
2023-02-23T07:26:10.452Z,6.00
2023-02-23T07:29:14.792Z,8.35
2023-02-23T07:32:18.722Z,7.45
2023-02-23T07:35:23.159Z,10.05
2023-02-23T07:38:27.269Z,11.40
2023-02-23T07:41:31.322Z,20.60
2023-02-23T07:44:35.543Z,34.83
2023-02-23T07:47:40.282Z,12.98
2023-02-23T07:50:44.859Z,9.90
2023-02-23T07:53:49.759Z,13.40
2023-02-23T07:56:53.961Z,10.60
2023-02-23T07:59:58.798Z,7.97
2023-02-23T08:03:06.731Z,7.05
2023-02-23T08:06:10.621Z,8.32
2023-02-23T08:09:14.853Z,12.73
2023-02-23T08:12:19.335Z,13.20
2023-02-23T08:15:23.533Z,12.00
2023-02-23T08:18:28.681Z,7.78
2023-02-23T08:21:33.540Z,7.40
2023-02-23T08:24:38.292Z,7.95
2023-02-23T08:27:43.320Z,7.60
2023-02-23T08:30:50.519Z,6.57
2023-02-23T08:33:54.844Z,5.95
2023-02-23T08:37:00.903Z,6.15
2023-02-23T08:40:08.831Z,6.47
2023-02-23T08:43:12.913Z,8.95
2023-02-23T08:46:19.502Z,21.63
2023-02-23T08:49:24.067Z,53.58
2023-02-23T08:52:27.816Z,49.83
2023-02-23T08:55:39.377Z,40.22
2023-02-23T08:58:44.681Z,32.65
2023-02-23T09:04:54.722Z,20.20
2023-02-23T09:07:58.872Z,15.85
2023-02-23T09:11:03.678Z,16.52
2023-02-23T09:14:07.989Z,21.10
2023-02-23T09:17:12.183Z,27.02
2023-02-23T09:20:17.787Z,36.25
2023-02-23T09:23:25.291Z,39.80
2023-02-23T09:26:30.155Z,30.73
2023-02-23T09:29:34.781Z,35.58
2023-02-23T09:32:38.716Z,32.40
2023-02-23T09:35:43.219Z,30.00
2023-02-23T09:38:50.207Z,39.23
2023-02-23T09:42:36.858Z,36.17
2023-02-23T09:46:00.641Z,25.13
2023-02-23T09:49:14.519Z,20.77
2023-02-23T09:52:48.101Z,26.15
2023-02-23T09:55:57.654Z,20.02
2023-02-23T09:59:02.146Z,18.30
2023-02-23T10:02:27.386Z,15.67
2023-02-23T10:05:38.981Z,17.75
2023-02-23T10:08:55.151Z,29.23
2023-02-23T10:12:19.815Z,28.10
2023-02-23T10:15:30.277Z,28.42
2023-02-23T10:19:09.052Z,42.63
2023-02-23T10:25:51.668Z,94.15
2023-02-23T10:29:00.814Z,24.05
2023-02-23T10:32:18.028Z,30.30
2023-02-23T10:35:25.507Z,40.45
2023-02-23T10:38:33.957Z,24.17
2023-02-23T10:41:40.346Z,34.78
2023-02-23T10:44:47.855Z,24.00
2023-02-23T10:47:58.910Z,23.08
2023-02-23T10:51:06.869Z,16.05
2023-02-23T10:54:37.141Z,26.80
2023-02-23T10:57:42.219Z,22.30
2023-02-23T11:01:02.667Z,37.00
2023-02-23T11:04:25.354Z,24.88
2023-02-23T11:07:32.344Z,31.98
2023-02-23T11:10:37.068Z,30.65
2023-02-23T11:13:42.418Z,21.23
2023-02-23T11:19:51.263Z,32.78
2023-02-23T11:22:58.938Z,29.10
2023-02-23T11:26:27.872Z,31.40
2023-02-23T11:29:37.834Z,29.67
2023-02-23T11:32:45.680Z,29.23
2023-02-23T11:35:58.930Z,33.72
2023-02-23T11:39:18.473Z,33.63
2023-02-23T11:42:26.364Z,37.15
2023-02-23T11:45:43.533Z,33.03
2023-02-23T11:49:17.144Z,47.53
2023-02-23T11:52:32.545Z,44.25
2023-02-23T11:55:40.832Z,54.33
2023-02-23T11:58:50.410Z,58.38
2023-02-23T12:01:59.971Z,34.92
2023-02-23T12:05:18.763Z,48.60
2023-02-23T12:08:36.567Z,35.75
2023-02-23T12:11:47.761Z,40.17
2023-02-23T12:15:36.129Z,35.78
2023-02-23T12:18:53.892Z,35.90
2023-02-23T12:22:08.762Z,38.03
2023-02-23T12:25:43.406Z,36.05
2023-02-23T12:28:59.895Z,39.47
2023-02-23T12:32:14.441Z,47.22
2023-02-23T12:35:31.023Z,62.80
2023-02-23T12:39:12.519Z,84.60
2023-02-23T12:42:17.005Z,49.35
2023-02-23T12:45:46.054Z,29.25
2023-02-23T12:49:14.867Z,31.45
2023-02-23T12:52:28.460Z,28.75
2023-02-23T12:55:42.369Z,48.38
2023-02-23T12:59:21.198Z,33.53
2023-02-23T13:02:37.562Z,47.75
2023-02-23T13:06:18.948Z,40.28
2023-02-23T13:10:15.138Z,35.13
2023-02-23T13:13:56.558Z,30.88
2023-02-23T13:17:13.641Z,22.60
2023-02-23T13:20:28.548Z,24.70
2023-02-23T13:24:12.068Z,23.33
2023-02-23T13:27:28.647Z,16.85
2023-02-23T13:30:37.900Z,18.45
2023-02-23T13:33:44.476Z,20.90
2023-02-23T13:36:51.307Z,22.73
2023-02-23T13:40:23.468Z,24.55
2023-02-23T13:43:53.991Z,15.70
2023-02-23T13:47:27.852Z,17.05
2023-02-23T13:50:48.894Z,16.45
2023-02-23T13:54:00.360Z,14.73
2023-02-23T13:57:14.211Z,9.52
2023-02-23T14:00:24.000Z,17.87
2023-02-23T14:03:34.945Z,38.13
2023-02-23T14:06:41.212Z,94.25
2023-02-23T14:09:57.979Z,97.13
2023-02-23T14:13:17.326Z,97.22
2023-02-23T14:16:21.874Z,75.13
2023-02-23T14:19:36.737Z,59.13
2023-02-23T14:23:19.301Z,47.00
2023-02-23T14:26:29.899Z,47.70
2023-02-23T14:29:45.857Z,40.95
2023-02-23T14:32:51.912Z,46.92
2023-02-23T14:35:57.036Z,49.25
2023-02-23T14:39:18.530Z,50.97
2023-02-23T14:42:33.556Z,49.65
2023-02-23T14:45:40.068Z,33.55
2023-02-23T14:49:10.952Z,25.65
2023-02-23T14:52:25.454Z,22.63
2023-02-23T14:55:33.419Z,19.65
2023-02-23T14:58:38.442Z,18.50
2023-02-23T15:01:42.820Z,16.77
2023-02-23T15:04:47.747Z,18.40
2023-02-23T15:07:52.822Z,17.73
2023-02-23T15:11:16.452Z,22.23
2023-02-23T15:14:27.886Z,24.77
2023-02-23T15:17:35.861Z,24.08
2023-02-23T15:20:44.869Z,26.90
2023-02-23T15:24:15.078Z,21.27
2023-02-23T15:27:28.098Z,28.42
2023-02-23T15:30:36.066Z,29.27
2023-02-23T15:33:41.266Z,26.88
2023-02-23T15:36:47.934Z,26.85
2023-02-23T15:40:03.572Z,20.05
2023-02-23T15:46:25.884Z,18.33
2023-02-23T15:49:37.815Z,20.80
2023-02-23T15:52:49.653Z,22.98
2023-02-23T15:56:01.663Z,18.23
2023-02-23T15:59:15.951Z,18.65
2023-02-23T16:02:24.975Z,16.55
2023-02-23T16:05:35.390Z,20.90
2023-02-23T16:08:59.126Z,26.88
2023-02-23T16:12:13.762Z,31.77
2023-02-23T16:15:34.808Z,56.15
2023-02-23T16:18:47.646Z,136.43
2023-02-23T16:21:55.093Z,116.38
2023-02-23T16:25:10.395Z,32.42
2023-02-23T16:28:21.587Z,17.00
2023-02-23T16:31:48.896Z,28.58
2023-02-23T16:35:22.794Z,24.27
2023-02-23T16:41:41.933Z,30.45
2023-02-23T16:44:48.136Z,34.92
2023-02-23T16:48:03.945Z,35.97
2023-02-23T16:51:22.128Z,41.92
2023-02-23T16:54:27.197Z,33.83
2023-02-23T16:57:40.786Z,29.63
2023-02-23T17:00:46.506Z,50.20
2023-02-23T17:03:53.223Z,219.10
2023-02-23T17:06:58.857Z,156.80
2023-02-23T17:10:03.250Z,111.80
2023-02-23T17:13:09.923Z,93.75
2023-02-23T17:16:18.017Z,43.25
2023-02-23T17:19:24.429Z,44.08
2023-02-23T17:22:36.017Z,41.75
2023-02-23T17:25:40.692Z,41.30
2023-02-23T17:28:46.377Z,40.30
2023-02-23T17:31:51.934Z,41.22
2023-02-23T17:34:56.820Z,41.45
2023-02-23T17:38:05.174Z,33.88
2023-02-23T17:41:18.985Z,27.17
2023-02-23T17:44:26.727Z,27.42
2023-02-23T17:47:32.847Z,26.33
2023-02-23T17:50:37.418Z,29.15
2023-02-23T17:53:42.100Z,40.88
2023-02-23T17:56:46.798Z,39.17
2023-02-23T17:59:51.378Z,36.30
2023-02-23T18:02:55.688Z,32.03
2023-02-23T18:06:08.646Z,33.70
2023-02-23T18:09:15.335Z,24.63
2023-02-23T18:12:20.231Z,22.98
2023-02-23T18:15:24.931Z,19.58
2023-02-23T18:18:30.083Z,17.77
2023-02-23T18:21:35.415Z,17.45
2023-02-23T18:24:40.201Z,19.35
2023-02-23T18:27:44.594Z,18.75
2023-02-23T18:30:48.894Z,16.00
2023-02-23T18:33:56.008Z,15.02
2023-02-23T18:37:03.190Z,16.83
2023-02-23T18:40:07.758Z,17.15
2023-02-23T18:43:12.425Z,17.00
2023-02-23T18:46:17.610Z,23.40
2023-02-23T18:52:28.080Z,22.67
2023-02-23T18:55:33.146Z,24.50
2023-02-23T18:58:37.533Z,20.40
2023-02-23T19:01:46.140Z,22.70
2023-02-23T19:04:50.070Z,23.45
2023-02-23T19:07:55.488Z,29.63
2023-02-23T19:10:59.538Z,31.63
2023-02-23T19:14:09.757Z,31.85
2023-02-23T19:17:14.367Z,21.60
2023-02-23T19:20:19.081Z,29.38
2023-02-23T19:23:23.541Z,25.10
2023-02-23T19:26:28.352Z,22.30
2023-02-23T19:29:32.189Z,17.75
2023-02-23T19:32:36.720Z,13.15
2023-02-23T19:35:41.965Z,12.82
2023-02-23T19:38:47.267Z,17.50
2023-02-23T19:41:51.474Z,23.95
2023-02-23T19:44:55.579Z,29.92
2023-02-23T19:47:59.798Z,22.83
2023-02-23T19:51:05.097Z,15.53
2023-02-23T19:54:09.484Z,11.90
2023-02-23T20:06:08.991Z,13.65
2023-02-23T20:09:13.095Z,13.82
2023-02-23T20:12:17.857Z,14.32
2023-02-23T20:15:22.968Z,15.55
2023-02-23T20:32:46.571Z,12.60
2023-02-23T20:36:18.943Z,11.65
2023-02-23T20:39:30.566Z,14.35
2023-02-23T20:42:34.711Z,14.65
2023-02-23T20:45:42.596Z,12.57
2023-02-23T20:48:49.821Z,14.57
2023-02-23T20:51:55.063Z,15.23
2023-02-23T20:55:01.673Z,13.80
2023-02-23T20:58:07.676Z,17.00
2023-02-23T21:01:18.512Z,18.85
2023-02-23T21:04:23.723Z,15.98
2023-02-23T21:07:30.284Z,18.02
2023-02-23T21:10:37.561Z,30.65
2023-02-23T21:13:44.132Z,25.90
2023-02-23T21:16:48.383Z,21.83
2023-02-23T21:19:52.973Z,29.88
2023-02-23T21:22:57.850Z,29.83
2023-02-23T21:26:10.484Z,27.48
2023-02-23T21:29:17.178Z,25.73
2023-02-23T21:32:21.601Z,43.20
2023-02-23T21:35:31.783Z,31.08
2023-02-23T21:38:50.650Z,39.80
2023-02-23T21:41:56.407Z,32.28
2023-02-23T21:45:05.881Z,40.10
2023-02-23T21:48:17.691Z,102.07
2023-02-23T21:51:22.287Z,92.10
2023-02-23T21:54:39.831Z,42.85
2023-02-23T21:57:45.563Z,92.82
2023-02-23T22:00:54.178Z,37.50
2023-02-23T22:04:02.028Z,42.70
2023-02-23T22:07:07.383Z,119.82
2023-02-23T22:10:11.958Z,52.65
2023-02-23T22:13:16.087Z,33.75
2023-02-23T22:16:20.655Z,32.90
2023-02-23T22:19:25.178Z,29.67
2023-02-23T22:22:29.597Z,36.03
2023-02-23T22:25:34.257Z,40.80
2023-02-23T22:28:38.572Z,39.40
2023-02-23T22:31:43.106Z,36.87
2023-02-23T22:34:47.642Z,34.25
2023-02-23T22:37:51.933Z,41.22
2023-02-23T22:40:56.365Z,36.28
2023-02-23T22:44:00.772Z,31.60
2023-02-23T22:47:05.439Z,39.40
2023-02-23T22:50:12.841Z,41.22
2023-02-23T22:53:17.737Z,36.65
2023-02-23T22:56:22.261Z,35.88
2023-02-23T22:59:29.476Z,35.55
2023-02-23T23:02:34.445Z,38.33
2023-02-23T23:05:38.708Z,53.15
2023-02-23T23:08:46.425Z,76.90
2023-02-23T23:11:51.678Z,63.70
2023-02-23T23:15:02.249Z,76.63
2023-02-23T23:18:14.796Z,85.30
2023-02-23T23:21:22.671Z,77.75
2023-02-23T23:24:27.227Z,82.97
2023-02-23T23:27:34.028Z,107.30
2023-02-23T23:30:38.256Z,37.25
2023-02-23T23:33:48.560Z,37.78
2023-02-23T23:36:53.736Z,34.00
2023-02-23T23:40:02.967Z,45.55
2023-02-23T23:43:08.422Z,34.20
2023-02-23T23:46:12.376Z,50.85
2023-02-23T23:49:21.478Z,47.80
2023-02-23T23:52:26.069Z,20.17
2023-02-23T23:55:32.267Z,15.02
2023-02-23T23:58:37.652Z,13.35
